Time;durP1;ratioP1;P1;durP2;ratioP2;P2;SDS_P1;SDS_P2;PMS_P1;PMS_P2;Temp;Humidity;BMP_temperature;BMP_pressure;BME280_temperature;BME280_humidity;BME280_pressure;Samples;Min_cycle;Max_cycle;Signal;HPM_P1;HPM_P2
2022/11/30 00:01:29;;;;;;;;;;;;;;;2.71;100.00;102291.59;5060343;28;19928;-74
2022/11/30 00:03:55;;;;;;;;;;;;;;;2.69;100.00;102298.56;5058383;28;19935;-74
2022/11/30 00:06:23;;;;;;;;;;;;;;;2.66;100.00;102301.13;5053841;28;19959;-74
2022/11/30 00:08:55;;;;;;;;;;;;;;;2.62;100.00;102301.09;5060086;28;19928;-74
2022/11/30 00:11:21;;;;;;;;;;;;;;;2.58;100.00;102298.41;5059197;28;20443;-75
2022/11/30 00:13:47;;;;;;;;;;;;;;;2.55;100.00;102301.00;5054486;28;19932;-75
2022/11/30 00:16:12;;;;;;;;;;;;;;;2.53;100.00;102294.91;5054242;28;20374;-75
2022/11/30 00:18:37;;;;;;;;;;;;;;;2.51;100.00;102306.19;5061614;28;20536;-74
2022/11/30 00:21:04;;;;;;;;;;;;;;;2.50;100.00;102294.84;5060528;28;19933;-74
2022/11/30 00:23:33;;;;;;;;;;;;;;;2.50;100.00;102297.47;5055481;28;19947;-75
2022/11/30 00:25:59;;;;;;;;;;;;;;;2.50;100.00;102310.53;5057677;28;19924;-75
2022/11/30 00:28:25;;;;;;;;;;;;;;;2.51;100.00;102307.06;5058756;28;20222;-74
2022/11/30 00:31:00;;;;;;;;;;;;;;;2.53;100.00;102301.84;5056921;28;19933;-75
2022/11/30 00:33:25;;;;;;;;;;;;;;;2.58;100.00;102314.09;5058398;28;21353;-75
2022/11/30 00:35:55;;;;;;;;;;;;;;;2.63;100.00;102310.69;5059977;28;19955;-75
2022/11/30 00:38:20;;;;;;;;;;;;;;;2.67;100.00;102309.88;5064850;28;19986;-75
2022/11/30 00:40:45;;;;;;;;;;;;;;;2.70;100.00;102312.50;5061948;28;19947;-75
2022/11/30 00:43:11;;;;;;;;;;;;;;;2.74;100.00;102303.84;5060796;28;19939;-75
2022/11/30 00:45:36;;;;;;;;;;;;;;;2.79;100.00;102316.97;5063558;28;19974;-75
2022/11/30 00:48:02;;;;;;;;;;;;;;;2.83;100.00;102314.38;5060972;28;19928;-75
2022/11/30 00:50:27;;;;;;;;;;;;;;;2.90;100.00;102324.94;5056485;28;20317;-75
2022/11/30 00:52:52;;;;;;;;;;;;;;;2.94;100.00;102318.88;5044148;28;19970;-75
2022/11/30 00:55:18;;;;;;;;;;;;;;;2.98;100.00;102308.44;5055396;28;19933;-75
2022/11/30 00:57:43;;;;;;;;;;;;;;;3.03;100.00;102310.22;5058665;28;19933;-74
2022/11/30 01:00:09;;;;;;;;;;;;;;;3.06;100.00;102315.50;5049563;28;19956;-75
2022/11/30 01:02:34;;;;;;;;;;;;;;;3.09;100.00;102316.41;5059517;28;19998;-75
2022/11/30 01:04:59;;;;;;;;;;;;;;;3.14;100.00;102311.19;5061967;28;19932;-75
2022/11/30 01:07:25;;;;;;;;;;;;;;;3.19;100.00;102312.13;5058305;28;20138;-75
2022/11/30 01:09:50;;;;;;;;;;;;;;;3.23;100.00;102311.28;5063368;27;20049;-75
2022/11/30 01:12:15;;;;;;;;;;;;;;;3.26;100.00;102318.28;5059150;28;19932;-75
2022/11/30 01:14:41;;;;;;;;;;;;;;;3.30;100.00;102314.84;5060316;28;19937;-75
2022/11/30 01:17:06;;;;;;;;;;;;;;;3.34;100.00;102321.88;5064496;28;20072;-75
2022/11/30 01:19:34;;;;;;;;;;;;;;;3.38;100.00;102322.78;5062765;28;21318;-75
2022/11/30 01:21:59;;;;;;;;;;;;;;;3.41;100.00;102314.94;5064669;28;19920;-75
2022/11/30 01:24:25;;;;;;;;;;;;;;;3.45;100.00;102315.81;5064254;28;20936;-75
2022/11/30 01:26:50;;;;;;;;;;;;;;;3.47;100.00;102312.34;5059095;28;19928;-75
2022/11/30 01:29:15;;;;;;;;;;;;;;;3.50;100.00;102316.75;5061001;28;19947;-75
2022/11/30 01:31:41;;;;;;;;;;;;;;;3.53;100.00;102322.00;5065302;28;19929;-75
2022/11/30 01:34:06;;;;;;;;;;;;;;;3.55;100.00;102312.44;5064211;28;19963;-75
2022/11/30 01:36:37;;;;;;;;;;;;;;;3.58;100.00;102314.16;5063078;28;19977;-75
2022/11/30 01:39:02;;;;;;;;;;;;;;;3.61;100.00;102311.59;5062523;28;20505;-75
2022/11/30 01:41:29;;;;;;;;;;;;;;;3.62;100.00;102308.97;5030009;28;19929;-75
2022/11/30 01:43:55;;;;;;;;;;;;;;;3.64;100.00;102303.72;5060336;28;19928;-75
2022/11/30 01:46:20;;;;;;;;;;;;;;;3.65;100.00;102300.28;5064920;28;19923;-75
2022/11/30 01:48:47;;;;;;;;;;;;;;;3.64;100.00;102308.97;5064197;28;20575;-75
2022/11/30 01:51:13;;;;;;;;;;;;;;;3.62;100.00;102305.47;5044493;28;20410;-75
2022/11/30 01:53:38;;;;;;;;;;;;;;;3.59;100.00;102310.72;5058389;28;19925;-75
2022/11/30 01:56:04;;;;;;;;;;;;;;;3.56;100.00;102321.16;5027952;28;19912;-75
2022/11/30 01:58:29;;;;;;;;;;;;;;;3.51;100.00;102310.63;5063186;28;20432;-75
2022/11/30 02:00:54;;;;;;;;;;;;;;;3.48;100.00;102321.97;5057872;28;20325;-75
2022/11/30 02:03:23;;;;;;;;;;;;;;;3.42;100.00;102310.56;5059112;28;19924;-75
2022/11/30 02:05:48;;;;;;;;;;;;;;;3.38;100.00;102322.78;5058526;28;19928;-75
2022/11/30 02:08:14;;;;;;;;;;;;;;;3.33;100.00;102320.09;5059266;28;19935;-75
2022/11/30 02:10:43;;;;;;;;;;;;;;;3.26;100.00;102321.78;5053618;28;19963;-75
2022/11/30 02:13:20;;;;;;;;;;;;;;;3.21;100.00;102325.25;5060404;28;19929;-75
2022/11/30 02:16:04;;;;;;;;;;;;;;;3.15;100.00;102320.81;5057344;28;21183;-74
2022/11/30 02:18:33;;;;;;;;;;;;;;;3.09;100.00;102321.63;5057208;28;19980;-75
2022/11/30 02:21:01;;;;;;;;;;;;;;;3.07;100.00;102318.13;5066643;28;19930;-75
2022/11/30 02:23:39;;;;;;;;;;;;;;;3.05;100.00;102319.84;5057359;28;19932;-75
2022/11/30 02:26:31;;;;;;;;;;;;;;;3.02;100.00;102311.97;5042942;28;19924;-75
2022/11/30 02:29:12;;;;;;;;;;;;;;;3.03;100.00;102308.50;5061169;28;20375;-75
2022/11/30 02:31:40;;;;;;;;;;;;;;;3.04;100.00;102307.63;5057270;28;19934;-75
2022/11/30 02:34:05;;;;;;;;;;;;;;;3.03;100.00;102311.09;5055744;28;20459;-74
2022/11/30 02:36:31;;;;;;;;;;;;;;;3.04;100.00;102312.84;5055165;28;19946;-75
2022/11/30 02:38:56;;;;;;;;;;;;;;;3.06;100.00;102320.72;5058089;28;19931;-75
2022/11/30 02:41:21;;;;;;;;;;;;;;;3.05;100.00;102322.44;5058035;28;19965;-75
2022/11/30 02:43:49;;;;;;;;;;;;;;;3.06;100.00;102311.13;5057062;28;19932;-75
2022/11/30 02:46:36;;;;;;;;;;;;;;;3.05;100.00;102306.75;5057196;28;19934;-75
2022/11/30 02:49:16;;;;;;;;;;;;;;;3.05;100.00;102306.75;5036928;28;21976;-74
2022/11/30 02:51:42;;;;;;;;;;;;;;;3.03;100.00;102305.88;5059460;28;19928;-75
2022/11/30 02:54:07;;;;;;;;;;;;;;;3.03;100.00;102321.56;5055922;28;20525;-75
2022/11/30 02:56:33;;;;;;;;;;;;;;;3.02;100.00;102311.97;5060723;28;20775;-75
2022/11/30 02:58:58;;;;;;;;;;;;;;;3.01;100.00;102311.94;5074685;28;20383;-75
2022/11/30 03:01:23;;;;;;;;;;;;;;;2.99;100.00;102307.59;5056730;28;20331;-74
2022/11/30 03:03:49;;;;;;;;;;;;;;;2.97;100.00;102316.28;5055780;28;19936;-75
2022/11/30 03:06:14;;;;;;;;;;;;;;;2.95;100.00;102313.63;5054341;28;19942;-75
2022/11/30 03:08:39;;;;;;;;;;;;;;;2.94;100.00;102313.63;5056510;28;20543;-75
2022/11/30 03:11:05;;;;;;;;;;;;;;;2.91;100.00;102303.13;5057659;28;20023;-75
2022/11/30 03:13:31;;;;;;;;;;;;;;;2.88;100.00;102305.72;5059055;28;19932;-75
2022/11/30 03:15:56;;;;;;;;;;;;;;;2.83;100.00;102309.16;5048851;28;19935;-75
2022/11/30 03:18:21;;;;;;;;;;;;;;;2.81;100.00;102310.91;5058989;28;19932;-75
2022/11/30 03:20:47;;;;;;;;;;;;;;;2.79;100.00;102309.97;5063359;28;19935;-74
2022/11/30 03:23:14;;;;;;;;;;;;;;;2.73;100.00;102312.56;5060895;28;19951;-75
2022/11/30 03:25:40;;;;;;;;;;;;;;;2.67;100.00;102309.88;5055814;28;20499;-75
2022/11/30 03:28:11;;;;;;;;;;;;;;;2.61;100.00;102313.28;5059093;28;19955;-74
2022/11/30 03:30:36;;;;;;;;;;;;;;;2.53;100.00;102313.22;5062904;28;19940;-75
2022/11/30 03:33:01;;;;;;;;;;;;;;;2.49;100.00;102318.34;5061022;28;19932;-74
2022/11/30 03:35:27;;;;;;;;;;;;;;;2.43;100.00;102319.16;5061140;28;20014;-75
2022/11/30 03:37:52;;;;;;;;;;;;;;;2.38;100.00;102321.72;5063018;28;20272;-75
2022/11/30 03:40:17;;;;;;;;;;;;;;;2.36;100.00;102319.94;5060867;28;20284;-75
2022/11/30 03:42:43;;;;;;;;;;;;;;;2.31;100.00;102326.00;5060392;28;20383;-75
2022/11/30 03:45:08;;;;;;;;;;;;;;;2.26;100.00;102322.47;5061811;28;19971;-75
2022/11/30 03:47:34;;;;;;;;;;;;;;;2.21;100.00;102318.00;5059819;28;19924;-75
2022/11/30 03:49:59;;;;;;;;;;;;;;;2.17;100.00;102319.72;5057319;28;19936;-75
2022/11/30 03:52:24;;;;;;;;;;;;;;;2.15;100.00;102314.47;5059703;27;19928;-75
2022/11/30 03:54:50;;;;;;;;;;;;;;;2.13;100.00;102320.53;5057977;28;19932;-75
2022/11/30 03:57:17;;;;;;;;;;;;;;;2.10;100.00;102312.63;5061108;28;19997;-74
2022/11/30 03:59:43;;;;;;;;;;;;;;;2.06;100.00;102319.56;5059652;28;20344;-75
2022/11/30 04:02:08;;;;;;;;;;;;;;;2.06;100.00;102324.78;5057719;28;19928;-75
2022/11/30 04:04:34;;;;;;;;;;;;;;;2.05;100.00;102325.66;5060158;28;19986;-75
2022/11/30 04:06:59;;;;;;;;;;;;;;;2.04;100.00;102329.13;5057268;28;19928;-75
2022/11/30 04:09:25;;;;;;;;;;;;;;;2.02;100.00;102329.09;5062697;27;20176;-75
2022/11/30 04:11:50;;;;;;;;;;;;;;;2.00;100.00;102330.81;5063806;27;20883;-75
2022/11/30 04:14:15;;;;;;;;;;;;;;;1.98;100.00;102334.25;5064634;27;19933;-75
2022/11/30 04:16:41;;;;;;;;;;;;;;;1.95;100.00;102337.69;5062238;27;19939;-75
2022/11/30 04:19:06;;;;;;;;;;;;;;;1.92;100.00;102342.00;5061373;28;20593;-75
2022/11/30 04:21:32;;;;;;;;;;;;;;;1.89;100.00;102340.22;5059054;28;19986;-74
2022/11/30 04:24:00;;;;;;;;;;;;;;;1.87;100.00;102342.81;5057682;28;20019;-75
2022/11/30 04:26:25;;;;;;;;;;;;;;;1.87;100.00;102334.09;5064501;28;19928;-75
2022/11/30 04:28:50;;;;;;;;;;;;;;;1.87;100.00;102344.56;5062944;28;19950;-74
2022/11/30 04:31:16;;;;;;;;;;;;;;;1.85;100.00;102344.53;5055485;28;19928;-74
2022/11/30 04:33:41;;;;;;;;;;;;;;;1.84;100.00;102347.09;5063399;28;19935;-74
2022/11/30 04:36:12;;;;;;;;;;;;;;;1.84;100.00;102347.09;5059085;28;19974;-74
2022/11/30 04:38:37;;;;;;;;;;;;;;;1.84;100.00;102348.00;5048716;28;19928;-74
2022/11/30 04:41:07;;;;;;;;;;;;;;;1.85;100.00;102348.88;5054966;28;19975;-75
2022/11/30 04:43:36;;;;;;;;;;;;;;;1.83;100.00;102354.06;5059121;28;19925;-75
2022/11/30 04:46:01;;;;;;;;;;;;;;;1.80;100.00;102347.94;5055908;28;19928;-75
2022/11/30 04:48:27;;;;;;;;;;;;;;;1.78;100.00;102360.09;5063121;28;19938;-75
2022/11/30 04:50:52;;;;;;;;;;;;;;;1.79;100.00;102365.31;5054472;28;20307;-75
2022/11/30 04:53:18;;;;;;;;;;;;;;;1.69;100.00;102373.88;5057445;28;20509;-75
2022/11/30 04:55:43;;;;;;;;;;;;;;;1.53;100.00;102372.75;5056214;28;19955;-75
2022/11/30 04:58:08;;;;;;;;;;;;;;;1.38;100.00;102371.63;5059594;28;19986;-75
2022/11/30 05:00:34;;;;;;;;;;;;;;;1.35;100.00;102379.38;5058883;28;19936;-74
2022/11/30 05:02:59;;;;;;;;;;;;;;;1.40;100.00;102379.47;5059803;28;19951;-75
2022/11/30 05:05:25;;;;;;;;;;;;;;;1.45;100.00;102375.22;5064455;28;21511;-75
2022/11/30 05:07:53;;;;;;;;;;;;;;;1.50;100.00;102370.94;5060935;28;19925;-75
2022/11/30 05:10:19;;;;;;;;;;;;;;;1.51;100.00;102379.69;5058106;28;19962;-75
2022/11/30 05:12:44;;;;;;;;;;;;;;;1.52;100.00;102384.91;5060630;28;20090;-75
2022/11/30 05:15:10;;;;;;;;;;;;;;;1.55;100.00;102384.09;5056889;28;19932;-75
2022/11/30 05:17:35;;;;;;;;;;;;;;;1.58;100.00;102389.38;5039788;28;20892;-75
2022/11/30 05:20:00;;;;;;;;;;;;;;;1.60;100.00;102391.16;5060643;28;19943;-75
2022/11/30 05:22:26;;;;;;;;;;;;;;;1.66;100.00;102392.09;5046628;28;19936;-74
2022/11/30 05:24:51;;;;;;;;;;;;;;;1.68;100.00;102382.56;5061452;27;19932;-74
2022/11/30 05:27:17;;;;;;;;;;;;;;;1.70;100.00;102389.53;5058955;28;19932;-75
2022/11/30 05:29:42;;;;;;;;;;;;;;;1.71;100.00;102386.13;5048697;28;20021;-75
2022/11/30 05:32:07;;;;;;;;;;;;;;;1.71;100.00;102390.44;5058642;28;21550;-75
2022/11/30 05:34:33;;;;;;;;;;;;;;;1.70;100.00;102389.53;5057164;28;20403;-74
2022/11/30 05:36:59;;;;;;;;;;;;;;;1.70;100.00;102394.78;5045497;28;20005;-74
2022/11/30 05:39:24;;;;;;;;;;;;;;;1.69;100.00;102394.78;5058366;28;19929;-75
2022/11/30 05:41:50;;;;;;;;;;;;;;;1.67;100.00;102394.72;5060954;28;21447;-74
2022/11/30 05:44:15;;;;;;;;;;;;;;;1.67;100.00;102397.34;5057074;28;19940;-74
2022/11/30 05:46:40;;;;;;;;;;;;;;;1.66;100.00;102406.03;5060770;28;20488;-74
2022/11/30 05:49:06;;;;;;;;;;;;;;;1.67;100.00;102412.13;5061653;28;19932;-74
2022/11/30 05:51:31;;;;;;;;;;;;;;;1.68;100.00;102417.38;5064774;28;21503;-75
2022/11/30 05:53:57;;;;;;;;;;;;;;;1.70;100.00;102420.03;5061634;28;19990;-75
2022/11/30 05:56:22;;;;;;;;;;;;;;;1.72;100.00;102418.31;5059138;28;19928;-74
2022/11/30 05:58:48;;;;;;;;;;;;;;;1.76;100.00;102415.78;5062393;28;19978;-75
2022/11/30 06:01:17;;;;;;;;;;;;;;;1.82;100.00;102409.78;5055423;28;20640;-75
2022/11/30 06:03:43;;;;;;;;;;;;;;;1.85;100.00;102406.34;5039459;28;19935;-75
2022/11/30 06:06:08;;;;;;;;;;;;;;;1.87;100.00;102404.63;5060168;28;19924;-75
2022/11/30 06:08:33;;;;;;;;;;;;;;;1.87;100.00;102409.84;5060360;28;19928;-75
2022/11/30 06:10:59;;;;;;;;;;;;;;;1.88;100.00;102409.00;5058050;28;19928;-75
2022/11/30 06:13:25;;;;;;;;;;;;;;;1.90;100.00;102409.88;5057158;28;19977;-75
2022/11/30 06:15:50;;;;;;;;;;;;;;;1.90;100.00;102420.34;5057938;28;20038;-75
2022/11/30 06:18:16;;;;;;;;;;;;;;;1.90;100.00;102407.28;5063103;28;20299;-75
2022/11/30 06:20:41;;;;;;;;;;;;;;;1.88;100.00;102403.78;5060737;28;19929;-74
2022/11/30 06:23:07;;;;;;;;;;;;;;;1.87;100.00;102409.84;5060610;28;20046;-75
2022/11/30 06:25:32;;;;;;;;;;;;;;;1.85;100.00;102419.41;5063935;28;19932;-75
2022/11/30 06:27:57;;;;;;;;;;;;;;;1.84;100.00;102417.63;5059418;28;19928;-75
2022/11/30 06:30:23;;;;;;;;;;;;;;;1.85;100.00;102422.03;5057270;28;20023;-75
2022/11/30 06:32:49;;;;;;;;;;;;;;;1.87;100.00;102422.91;5046470;28;19931;-75
2022/11/30 06:35:14;;;;;;;;;;;;;;;1.90;100.00;102422.94;5061302;28;19917;-75
2022/11/30 06:37:40;;;;;;;;;;;;;;;1.94;100.00;102424.78;5057924;28;19931;-75
2022/11/30 06:40:06;;;;;;;;;;;;;;;1.96;100.00;102420.44;5060385;28;19924;-75
2022/11/30 06:42:31;;;;;;;;;;;;;;;1.97;100.00;102421.34;5060353;28;20442;-75
2022/11/30 06:44:57;;;;;;;;;;;;;;;1.97;100.00;102427.41;5045919;28;20477;-75
2022/11/30 06:47:22;;;;;;;;;;;;;;;1.97;100.00;102427.41;5054983;28;19920;-74
2022/11/30 06:49:48;;;;;;;;;;;;;;;1.97;100.00;102416.09;5057797;28;19924;-74
2022/11/30 06:52:13;;;;;;;;;;;;;;;1.97;100.00;102419.59;5057506;28;20657;-75
2022/11/30 06:54:39;;;;;;;;;;;;;;;1.96;100.00;102423.06;5056631;28;19932;-74
2022/11/30 06:57:04;;;;;;;;;;;;;;;1.92;100.00;102426.50;5054095;28;19981;-75
2022/11/30 06:59:29;;;;;;;;;;;;;;;1.90;100.00;102430.78;5061116;28;19984;-75
2022/11/30 07:01:55;;;;;;;;;;;;;;;1.91;100.00;102424.75;5056689;28;19935;-75
2022/11/30 07:04:20;;;;;;;;;;;;;;;1.89;100.00;102415.97;5055586;28;19924;-74
2022/11/30 07:06:46;;;;;;;;;;;;;;;1.87;100.00;102423.78;5043911;28;19974;-75
2022/11/30 07:09:12;;;;;;;;;;;;;;;1.85;100.00;102430.72;5059544;28;20271;-75
2022/11/30 07:11:38;;;;;;;;;;;;;;;1.81;100.00;102431.53;5060176;28;21498;-74
2022/11/30 07:14:03;;;;;;;;;;;;;;;1.78;100.00;102433.22;5040136;28;20394;-74
2022/11/30 07:16:28;;;;;;;;;;;;;;;1.74;100.00;102427.94;5060422;28;19932;-74
2022/11/30 07:18:54;;;;;;;;;;;;;;;1.72;100.00;102436.59;5055163;28;20284;-74
2022/11/30 07:21:19;;;;;;;;;;;;;;;1.70;100.00;102441.78;5054218;28;19932;-75
2022/11/30 07:26:29;;;;;;;;;;;;;;;1.68;100.00;102447.84;5077479;28;20341;-74
2022/11/30 07:28:57;;;;;;;;;;;;;;;1.68;100.00;102456.56;5057022;28;19936;-74
2022/11/30 07:31:22;;;;;;;;;;;;;;;1.69;100.00;102460.91;5032233;28;19933;-74
2022/11/30 07:33:48;;;;;;;;;;;;;;;1.70;100.00;102467.03;5059905;28;19928;-74
2022/11/30 07:36:14;;;;;;;;;;;;;;;1.69;100.00;102466.13;5058592;28;19947;-75
2022/11/30 07:38:39;;;;;;;;;;;;;;;1.69;100.00;102471.34;5060673;28;20331;-75
2022/11/30 07:41:05;;;;;;;;;;;;;;;1.70;100.00;102467.03;5063703;28;20650;-75
2022/11/30 07:43:31;;;;;;;;;;;;;;;1.69;100.00;102467.88;5049252;28;20287;-74
2022/11/30 07:45:57;;;;;;;;;;;;;;;1.68;100.00;102467.00;5060750;28;19964;-74
2022/11/30 07:48:25;;;;;;;;;;;;;;;1.67;100.00;102467.84;5066574;28;19931;-75
2022/11/30 07:50:50;;;;;;;;;;;;;;;1.67;100.00;102470.47;5047289;28;20358;-74
2022/11/30 07:53:19;;;;;;;;;;;;;;;1.67;100.00;102462.63;5064068;28;19963;-74
2022/11/30 07:55:44;;;;;;;;;;;;;;;1.68;100.00;102464.38;5065399;28;20410;-74
2022/11/30 07:58:10;;;;;;;;;;;;;;;1.68;100.00;102473.97;5065791;28;19924;-74
2022/11/30 08:00:36;;;;;;;;;;;;;;;1.69;100.00;102475.72;5062845;28;19948;-74
2022/11/30 08:03:01;;;;;;;;;;;;;;;1.70;100.00;102478.34;5063345;28;19929;-74
2022/11/30 08:05:26;;;;;;;;;;;;;;;1.71;100.00;102485.34;5064724;28;19930;-74
2022/11/30 08:07:52;;;;;;;;;;;;;;;1.74;100.00;102492.38;5063585;28;19919;-75
2022/11/30 08:10:18;;;;;;;;;;;;;;;1.78;100.00;102498.53;5060153;28;19924;-75
2022/11/30 08:12:44;;;;;;;;;;;;;;;1.84;100.00;102499.50;5063950;28;20416;-75
2022/11/30 08:15:09;;;;;;;;;;;;;;;1.93;100.00;102497.88;5064609;28;19928;-74
2022/11/30 08:17:35;;;;;;;;;;;;;;;2.00;100.00;102502.34;5064463;28;19993;-74
2022/11/30 08:20:00;;;;;;;;;;;;;;;2.07;100.00;102503.34;5065378;28;19967;-75
2022/11/30 08:22:25;;;;;;;;;;;;;;;2.14;100.00;102510.44;5063820;28;19983;-74
2022/11/30 08:24:51;;;;;;;;;;;;;;;2.21;100.00;102521.88;5064122;28;20451;-75
2022/11/30 08:27:16;;;;;;;;;;;;;;;2.28;100.00;102514.16;5066241;28;19967;-74
2022/11/30 08:29:42;;;;;;;;;;;;;;;2.38;100.00;102525.63;5062361;28;20545;-74
2022/11/30 08:32:07;;;;;;;;;;;;;;;2.46;100.00;102524.88;5065676;28;19929;-74
2022/11/30 08:34:35;;;;;;;;;;;;;;;2.55;100.00;102528.50;5063787;28;19928;-74
2022/11/30 08:37:00;;;;;;;;;;;;;;;2.64;100.00;102532.13;5063786;28;20310;-75
2022/11/30 08:39:27;;;;;;;;;;;;;;;2.73;100.00;102529.66;5064243;28;19928;-75
2022/11/30 08:41:52;;;;;;;;;;;;;;;2.81;100.00;102537.59;5066473;28;20006;-76
2022/11/30 08:44:18;;;;;;;;;;;;;;;2.87;100.00;102542.91;5061104;28;19936;-75
2022/11/30 08:46:43;;;;;;;;;;;;;;;2.93;100.00;102545.63;5066115;28;19932;-75
2022/11/30 08:49:09;;;;;;;;;;;;;;;2.99;100.00;102544.81;5065389;27;19936;-75
2022/11/30 08:51:34;;;;;;;;;;;;;;;3.07;100.00;102548.44;5054666;28;19936;-74
2022/11/30 08:54:00;;;;;;;;;;;;;;;3.18;100.00;102555.53;5065440;28;19936;-75
2022/11/30 08:56:25;;;;;;;;;;;;;;;3.24;100.00;102545.16;5051483;28;20272;-75
2022/11/30 08:58:51;;;;;;;;;;;;;;;3.28;100.00;102546.97;5063018;28;19928;-76
2022/11/30 09:01:21;;;;;;;;;;;;;;;3.33;100.00;102547.88;5061927;28;20520;-74
2022/11/30 09:03:47;;;;;;;;;;;;;;;3.38;100.00;102548.81;5063193;28;19924;-75
2022/11/30 09:06:13;;;;;;;;;;;;;;;3.44;100.00;102547.13;5060953;28;19995;-74
2022/11/30 09:08:39;;;;;;;;;;;;;;;3.49;100.00;102558.56;5064877;28;20011;-74
2022/11/30 09:11:08;;;;;;;;;;;;;;;3.54;100.00;102554.22;5065894;28;20500;-74
2022/11/30 09:13:34;;;;;;;;;;;;;;;3.57;100.00;102549.03;5065786;28;19951;-74
2022/11/30 09:15:59;;;;;;;;;;;;;;;3.60;100.00;102554.28;5063612;28;20398;-74
2022/11/30 09:18:25;;;;;;;;;;;;;;;3.64;100.00;102557.81;5066616;27;19928;-74
2022/11/30 09:20:50;;;;;;;;;;;;;;;3.67;100.00;102555.25;5063792;28;19924;-74
2022/11/30 09:23:15;;;;;;;;;;;;;;;3.73;100.00;102559.66;5065866;28;19924;-75
2022/11/30 09:25:41;;;;;;;;;;;;;;;3.75;100.00;102560.56;5065324;28;19935;-75
2022/11/30 09:28:06;;;;;;;;;;;;;;;3.79;100.00;102564.97;5062266;28;20086;-75
2022/11/30 09:30:31;;;;;;;;;;;;;;;3.86;100.00;102568.56;5061465;28;20088;-75
2022/11/30 09:32:58;;;;;;;;;;;;;;;3.89;100.00;102564.22;5061851;28;19932;-75
2022/11/30 09:35:23;;;;;;;;;;;;;;;3.96;100.00;102577.41;5063586;28;19924;-75
2022/11/30 09:37:49;;;;;;;;;;;;;;;4.01;100.00;102576.56;5062112;28;20574;-75
2022/11/30 09:40:21;;;;;;;;;;;;;;;4.06;100.00;102579.22;5059581;28;20003;-75
2022/11/30 09:43:10;;;;;;;;;;;;;;;4.12;100.00;102574.03;5032816;28;19951;-75
2022/11/30 09:45:38;;;;;;;;;;;;;;;4.19;100.00;102575.84;5054654;28;19930;-75
2022/11/30 09:48:16;;;;;;;;;;;;;;;4.22;100.00;102569.75;5060982;28;19977;-75
2022/11/30 09:50:43;;;;;;;;;;;;;;;4.27;100.00;102572.41;5064162;28;20409;-75
2022/11/30 09:53:11;;;;;;;;;;;;;;;4.31;100.00;102574.22;5064157;28;20524;-75
2022/11/30 09:55:38;;;;;;;;;;;;;;;4.35;100.00;102579.50;5033233;28;19940;-75
2022/11/30 09:58:04;;;;;;;;;;;;;;;4.40;100.00;102574.28;5058100;28;20511;-75
2022/11/30 10:00:29;;;;;;;;;;;;;;;4.43;100.00;102574.31;5048098;28;19951;-75
2022/11/30 10:02:56;;;;;;;;;;;;;;;4.51;100.00;102581.38;5049323;28;19935;-76
2022/11/30 10:05:25;;;;;;;;;;;;;;;4.56;100.00;102582.25;5061733;28;19923;-75
2022/11/30 10:07:54;;;;;;;;;;;;;;;4.60;100.00;102570.94;5060038;28;20367;-76
2022/11/30 10:10:34;;;;;;;;;;;;;;;4.66;100.00;102568.38;5061387;28;19988;-76
2022/11/30 10:13:04;;;;;;;;;;;;;;;4.70;100.00;102570.16;5060563;28;19963;-76
2022/11/30 10:15:44;;;;;;;;;;;;;;;4.73;100.00;102564.03;5059610;28;19978;-76
2022/11/30 10:18:13;;;;;;;;;;;;;;;4.80;100.00;102567.59;5062440;28;19934;-77
2022/11/30 10:20:51;;;;;;;;;;;;;;;4.84;100.00;102559.72;5061202;28;19939;-76
2022/11/30 10:23:23;;;;;;;;;;;;;;;4.88;100.00;102565.88;5063118;28;19929;-77
2022/11/30 10:25:57;;;;;;;;;;;;;;;4.93;100.00;102563.28;5060989;28;19936;-77
2022/11/30 10:28:52;;;;;;;;;;;;;;;4.97;100.00;102565.91;5045926;28;19929;-77
2022/11/30 10:31:19;;;;;;;;;;;;;;;5.02;100.00;102565.97;5052810;28;19968;-77
2022/11/30 10:33:49;;;;;;;;;;;;;;;5.03;100.00;102559.84;5045046;28;20337;-76
2022/11/30 10:36:18;;;;;;;;;;;;;;;5.06;100.00;102564.25;5056961;28;19931;-76
2022/11/30 10:38:48;;;;;;;;;;;;;;;5.09;100.00;102569.50;5059008;28;19987;-76
2022/11/30 10:41:20;;;;;;;;;;;;;;;5.09;100.00;102567.75;5043391;28;20375;-76
2022/11/30 10:44:01;;;;;;;;;;;;;;;5.08;100.00;102565.13;5062014;28;19932;-76
2022/11/30 10:46:27;;;;;;;;;;;;;;;5.08;100.00;102562.50;5060253;28;20015;-76
2022/11/30 10:49:05;;;;;;;;;;;;;;;5.06;100.00;102572.97;5059321;28;19924;-76
2022/11/30 10:51:33;;;;;;;;;;;;;;;5.07;100.00;102566.00;5047665;28;20395;-76
2022/11/30 10:53:59;;;;;;;;;;;;;;;5.09;100.00;102564.25;5060594;28;20108;-76
2022/11/30 10:56:25;;;;;;;;;;;;;;;5.11;100.00;102557.22;5061095;28;20754;-76
2022/11/30 10:58:55;;;;;;;;;;;;;;;5.12;100.00;102559.03;5047828;28;19932;-76
2022/11/30 11:01:28;;;;;;;;;;;;;;;5.16;100.00;102552.91;5054918;28;19925;-76
2022/11/30 11:04:06;;;;;;;;;;;;;;;5.18;100.00;102553.81;5041469;28;20635;-74
2022/11/30 11:06:34;;;;;;;;;;;;;;;5.20;100.00;102549.41;5060741;28;19928;-74
2022/11/30 11:09:29;;;;;;;;;;;;;;;5.21;100.00;102556.44;5056749;28;19928;-74
2022/11/30 11:11:58;;;;;;;;;;;;;;;5.23;100.00;102552.03;5062377;28;20015;-75
2022/11/30 11:14:25;;;;;;;;;;;;;;;5.27;100.00;102550.31;5060982;28;19928;-75
2022/11/30 11:16:52;;;;;;;;;;;;;;;5.27;100.00;102555.56;5058810;28;19924;-73
2022/11/30 11:19:22;;;;;;;;;;;;;;;5.27;100.00;102552.94;5049369;28;20015;-73
2022/11/30 11:21:48;;;;;;;;;;;;;;;5.26;100.00;102552.06;5059461;28;19935;-74
2022/11/30 11:24:13;;;;;;;;;;;;;;;5.28;100.00;102552.94;5059208;28;21402;-73
2022/11/30 11:26:39;;;;;;;;;;;;;;;5.28;100.00;102546.81;5058946;28;19929;-73
2022/11/30 11:29:07;;;;;;;;;;;;;;;5.30;100.00;102555.59;5060697;28;20318;-73
2022/11/30 11:31:35;;;;;;;;;;;;;;;5.28;100.00;102552.94;5057968;28;19929;-74
2022/11/30 11:34:00;;;;;;;;;;;;;;;5.25;100.00;102554.69;5058401;28;20509;-74
2022/11/30 11:36:26;;;;;;;;;;;;;;;5.25;100.00;102566.09;5060461;28;20010;-74
2022/11/30 11:38:54;;;;;;;;;;;;;;;5.26;100.00;102570.47;5061482;28;19924;-73
2022/11/30 11:41:23;;;;;;;;;;;;;;;5.25;100.00;102571.34;5060755;28;20379;-74
2022/11/30 11:44:07;;;;;;;;;;;;;;;5.24;100.00;102568.69;5060461;28;19935;-74
2022/11/30 11:46:35;;;;;;;;;;;;;;;5.24;100.00;102566.94;5059338;28;19993;-74
2022/11/30 11:49:04;;;;;;;;;;;;;;;5.27;100.00;102566.06;5062484;28;19924;-74
2022/11/30 11:51:30;;;;;;;;;;;;;;;5.30;100.00;102563.47;5061108;28;20299;-75
2022/11/30 11:53:57;;;;;;;;;;;;;;;5.29;100.00;102569.59;5058615;28;19983;-75
2022/11/30 11:56:24;;;;;;;;;;;;;;;5.31;100.00;102562.59;5060543;28;19978;-74
2022/11/30 11:59:03;;;;;;;;;;;;;;;5.34;100.00;102567.00;5058931;28;20116;-74
2022/11/30 12:01:35;;;;;;;;;;;;;;;5.34;100.00;102575.72;5058347;28;19999;-74
2022/11/30 12:04:03;;;;;;;;;;;;;;;5.36;100.00;102570.50;5055939;28;19924;-74
2022/11/30 12:06:29;;;;;;;;;;;;;;;5.36;100.00;102567.88;5058739;28;20327;-74
2022/11/30 12:08:56;;;;;;;;;;;;;;;5.36;100.00;102573.13;5045729;28;20121;-76
2022/11/30 12:11:25;;;;;;;;;;;;;;;5.38;100.00;102574.00;5058621;28;21546;-76
2022/11/30 12:13:52;;;;;;;;;;;;;;;5.37;100.00;102575.75;5057498;28;20021;-76
2022/11/30 12:16:36;;;;;;;;;;;;;;;5.40;100.00;102567.00;5059355;28;19974;-76
2022/11/30 12:19:04;;;;;;;;;;;;;;;5.40;100.00;102570.50;5059080;28;21637;-76
2022/11/30 12:21:40;;;;;;;;;;;;;;;5.41;100.00;102571.41;5046242;28;19928;-76
2022/11/30 12:24:12;;;;;;;;;;;;;;;5.40;100.00;102574.91;5060758;28;20391;-76
2022/11/30 12:26:39;;;;;;;;;;;;;;;5.41;100.00;102560.88;5064068;28;20267;-76
2022/11/30 12:29:14;;;;;;;;;;;;;;;5.40;100.00;102565.25;5063809;28;20292;-76
2022/11/30 12:32:00;;;;;;;;;;;;;;;5.40;100.00;102567.88;5060942;28;19960;-76
2022/11/30 12:34:25;;;;;;;;;;;;;;;5.43;100.00;102567.00;5058723;28;19978;-76
2022/11/30 12:36:50;;;;;;;;;;;;;;;5.44;100.00;102560.88;5063270;27;19979;-74
2022/11/30 12:39:16;;;;;;;;;;;;;;;5.46;100.00;102563.53;5063643;28;21394;-74